createdAt,value
2019-04-10T00:00:25.312Z,14.40
2019-04-10T00:01:25.743Z,13.70
2019-04-10T00:02:25.857Z,13.80
2019-04-10T00:03:32.445Z,13.70
2019-04-10T00:04:25.274Z,14.30
2019-04-10T00:05:25.592Z,14.40
2019-04-10T00:06:25.800Z,14.00
2019-04-10T00:07:25.701Z,13.50
2019-04-10T00:08:25.961Z,13.90
2019-04-10T00:09:25.257Z,14.60
2019-04-10T00:10:24.972Z,13.90
2019-04-10T00:11:24.974Z,14.70
2019-04-10T00:12:25.456Z,13.70
2019-04-10T00:13:24.878Z,14.30
2019-04-10T00:14:24.893Z,14.00
2019-04-10T00:15:24.822Z,14.00
2019-04-10T00:16:24.904Z,13.60
2019-04-10T00:17:25.013Z,13.40
2019-04-10T00:18:24.742Z,13.70
2019-04-10T00:19:24.830Z,13.40
2019-04-10T00:20:24.691Z,14.00
2019-04-10T00:21:25.198Z,13.30
2019-04-10T00:22:24.638Z,13.50
2019-04-10T00:23:24.845Z,13.70
2019-04-10T00:24:24.586Z,13.60
2019-04-10T00:25:24.662Z,13.50
2019-04-10T00:26:24.531Z,14.10
2019-04-10T00:27:24.566Z,13.70
2019-04-10T00:28:25.450Z,13.80
2019-04-10T00:29:24.587Z,14.20
2019-04-10T00:30:25.049Z,13.60
2019-04-10T00:31:24.421Z,14.10
2019-04-10T00:32:24.398Z,13.70
2019-04-10T00:33:24.973Z,14.30
2019-04-10T00:34:25.334Z,14.30
2019-04-10T00:35:25.480Z,13.80
2019-04-10T00:36:24.746Z,13.70
2019-04-10T00:37:28.446Z,13.30
2019-04-10T00:38:24.222Z,13.60
2019-04-10T00:39:24.186Z,13.80
2019-04-10T00:40:24.153Z,14.50
2019-04-10T00:41:24.158Z,14.00
2019-04-10T00:42:25.960Z,14.00
2019-04-10T00:43:24.599Z,13.70
2019-04-10T00:44:24.046Z,13.90
2019-04-10T00:45:25.047Z,13.50
2019-04-10T00:46:24.259Z,13.90
2019-04-10T00:47:24.079Z,13.50
2019-04-10T00:48:24.056Z,13.90
2019-04-10T00:49:24.009Z,13.90
2019-04-10T00:50:23.881Z,14.10
2019-04-10T00:51:23.863Z,13.90
2019-04-10T00:52:24.123Z,14.90
2019-04-10T00:53:23.906Z,14.10
2019-04-10T00:54:23.814Z,14.90
2019-04-10T00:55:23.842Z,14.10
2019-04-10T00:56:24.250Z,14.50
2019-04-10T00:57:23.697Z,14.30
2019-04-10T00:58:23.734Z,14.10
2019-04-10T00:59:24.148Z,14.30
2019-04-10T01:00:23.706Z,13.80
2019-04-10T01:01:23.732Z,14.00
2019-04-10T01:02:23.551Z,13.70
2019-04-10T01:03:23.646Z,13.70
2019-04-10T01:04:24.491Z,13.80
2019-04-10T01:05:23.474Z,13.70
2019-04-10T01:06:24.102Z,13.60
2019-04-10T01:07:34.731Z,14.30
2019-04-10T01:08:24.320Z,14.30
2019-04-10T01:09:23.644Z,13.90
2019-04-10T01:10:23.334Z,14.00
2019-04-10T01:11:23.400Z,14.60
2019-04-10T01:12:23.636Z,13.60
2019-04-10T01:13:23.250Z,13.80
2019-04-10T01:14:23.450Z,14.10
2019-04-10T01:15:23.245Z,14.20
2019-04-10T01:16:23.225Z,13.80
2019-04-10T01:17:24.058Z,14.20
2019-04-10T01:18:23.425Z,14.70
2019-04-10T01:19:23.857Z,14.00
2019-04-10T01:20:23.800Z,14.40
2019-04-10T01:21:23.189Z,14.10
2019-04-10T01:22:23.902Z,13.40
2019-04-10T01:23:23.072Z,14.00
2019-04-10T01:24:23.749Z,13.50
2019-04-10T01:25:24.129Z,14.20
2019-04-10T01:26:23.292Z,13.60
2019-04-10T01:27:23.652Z,13.80
2019-04-10T01:28:22.841Z,13.60
2019-04-10T01:29:22.900Z,13.20
2019-04-10T01:30:22.813Z,13.90
2019-04-10T01:31:23.286Z,13.60
2019-04-10T01:32:23.713Z,13.70
2019-04-10T01:33:22.816Z,14.40
2019-04-10T01:34:23.751Z,13.20
2019-04-10T01:35:22.641Z,14.10
2019-04-10T01:36:22.821Z,13.10
2019-04-10T01:37:22.948Z,13.80
2019-04-10T01:38:22.650Z,13.80
2019-04-10T01:39:22.544Z,13.40
2019-04-10T01:40:23.361Z,13.80
2019-04-10T01:41:22.480Z,13.70
2019-04-10T01:42:22.847Z,13.60
2019-04-10T01:43:22.582Z,13.30
2019-04-10T01:44:22.757Z,13.20
2019-04-10T01:45:22.397Z,13.10
2019-04-10T01:46:22.387Z,13.90
2019-04-10T01:47:23.356Z,13.60
2019-04-10T01:48:22.301Z,13.70
2019-04-10T01:49:22.262Z,13.50
2019-04-10T01:50:22.323Z,13.70
2019-04-10T01:51:23.341Z,12.80
2019-04-10T01:52:22.736Z,13.70
2019-04-10T01:53:22.153Z,13.40
2019-04-10T01:54:22.724Z,13.60
2019-04-10T01:55:25.683Z,13.60
2019-04-10T01:56:29.417Z,13.60
2019-04-10T01:57:22.057Z,13.00
2019-04-10T01:58:23.113Z,12.70
2019-04-10T01:59:22.072Z,13.20
2019-04-10T02:00:21.953Z,12.70
2019-04-10T02:01:21.982Z,12.70
2019-04-10T02:02:21.903Z,13.20
2019-04-10T02:03:22.245Z,13.00
2019-04-10T02:04:22.772Z,12.90
2019-04-10T02:05:22.792Z,12.80
2019-04-10T02:06:21.793Z,13.20
2019-04-10T02:07:22.971Z,13.50
2019-04-10T02:08:21.742Z,12.90
2019-04-10T02:09:21.700Z,12.60
2019-04-10T02:10:21.681Z,13.40
2019-04-10T02:11:21.835Z,13.40
2019-04-10T02:12:21.622Z,12.70
2019-04-10T02:13:21.643Z,12.40
2019-04-10T02:14:22.426Z,13.00
2019-04-10T02:15:21.768Z,12.50
2019-04-10T02:16:21.513Z,13.00
2019-04-10T02:17:22.275Z,12.70
2019-04-10T02:18:21.476Z,12.40
2019-04-10T02:19:21.904Z,12.50
2019-04-10T02:20:21.483Z,12.40
2019-04-10T02:21:21.371Z,13.00
2019-04-10T02:22:22.375Z,12.70
2019-04-10T02:23:21.313Z,12.00
2019-04-10T02:24:21.306Z,12.80
2019-04-10T02:25:21.974Z,12.40
2019-04-10T02:26:21.370Z,12.60
2019-04-10T02:27:22.404Z,13.20
2019-04-10T02:28:21.237Z,12.70
2019-04-10T02:29:21.806Z,12.80
2019-04-10T02:30:21.888Z,12.40
2019-04-10T02:31:21.999Z,12.80
2019-04-10T02:32:21.261Z,12.50
2019-04-10T02:33:21.054Z,12.80
2019-04-10T02:34:21.323Z,12.50
2019-04-10T02:35:23.675Z,12.20
2019-04-10T02:36:21.353Z,12.70
2019-04-10T02:37:22.337Z,12.50
2019-04-10T02:38:41.503Z,12.10
2019-04-10T02:39:31.418Z,12.30
2019-04-10T02:40:21.352Z,12.30
2019-04-10T02:41:21.568Z,12.00
2019-04-10T02:42:21.025Z,12.40
2019-04-10T02:43:21.190Z,11.90
2019-04-10T02:44:20.815Z,12.60
2019-04-10T02:45:21.972Z,12.60
2019-04-10T02:46:21.987Z,12.40
2019-04-10T02:47:21.148Z,12.30
2019-04-10T02:48:20.847Z,12.70
2019-04-10T02:49:20.642Z,12.40
2019-04-10T02:50:20.819Z,12.50
2019-04-10T02:51:22.884Z,12.20
2019-04-10T02:52:22.195Z,12.30
2019-04-10T02:53:21.619Z,11.90
2019-04-10T02:54:21.347Z,12.50
2019-04-10T02:55:23.002Z,12.30
2019-04-10T02:56:21.482Z,12.20
2019-04-10T02:57:21.490Z,12.50
2019-04-10T02:58:20.581Z,12.50
2019-04-10T02:59:21.148Z,11.90
2019-04-10T03:00:22.297Z,12.50
2019-04-10T03:01:20.257Z,12.00
2019-04-10T03:02:20.344Z,11.80
2019-04-10T03:03:20.217Z,11.90
2019-04-10T03:04:20.703Z,12.50
2019-04-10T03:05:23.016Z,11.90
2019-04-10T03:06:20.651Z,12.40
2019-04-10T03:07:20.090Z,12.30
2019-04-10T03:08:39.598Z,12.60
2019-04-10T03:09:37.218Z,12.30
2019-04-10T03:10:27.776Z,12.40
2019-04-10T03:11:21.750Z,12.40
2019-04-10T03:12:21.726Z,12.60
2019-04-10T03:13:19.938Z,12.40
2019-04-10T03:14:21.144Z,12.40
2019-04-10T03:15:20.066Z,12.00
2019-04-10T03:16:19.825Z,12.10
2019-04-10T03:17:19.891Z,11.90
2019-04-10T03:18:20.881Z,12.60
2019-04-10T03:19:19.815Z,12.40
2019-04-10T03:20:20.429Z,12.20
2019-04-10T03:21:20.712Z,12.30
2019-04-10T03:22:20.762Z,12.30
2019-04-10T03:23:19.746Z,11.80
2019-04-10T03:24:19.592Z,11.50
2019-04-10T03:25:19.643Z,12.30
2019-04-10T03:26:19.545Z,12.20
2019-04-10T03:27:20.489Z,12.00
2019-04-10T03:28:19.557Z,11.60
2019-04-10T03:29:19.906Z,12.70
2019-04-10T03:30:22.374Z,11.70
2019-04-10T03:31:20.144Z,11.80
2019-04-10T03:32:20.964Z,12.00
2019-04-10T03:33:23.877Z,11.80
2019-04-10T03:34:22.355Z,11.40
2019-04-10T03:35:19.289Z,12.30
2019-04-10T03:36:19.300Z,11.60
2019-04-10T03:37:20.231Z,12.10
2019-04-10T03:38:19.202Z,11.90
2019-04-10T03:39:19.213Z,12.10
2019-04-10T03:40:19.530Z,11.90
2019-04-10T03:41:19.833Z,11.60
2019-04-10T03:42:19.088Z,11.70
2019-04-10T03:43:19.481Z,11.90
2019-04-10T03:44:19.041Z,11.60
2019-04-10T03:45:20.135Z,12.00
2019-04-10T03:46:19.488Z,11.30
2019-04-10T03:47:19.605Z,11.30
2019-04-10T03:48:18.949Z,11.50
2019-04-10T03:49:19.915Z,12.00
2019-04-10T03:50:18.873Z,11.90
2019-04-10T03:51:18.823Z,11.60
2019-04-10T03:52:19.073Z,11.60
2019-04-10T03:53:18.765Z,11.80
2019-04-10T03:54:18.820Z,12.40
2019-04-10T03:55:18.957Z,12.00
2019-04-10T03:56:18.714Z,11.70
2019-04-10T03:57:18.654Z,12.50
2019-04-10T03:58:19.681Z,12.20
2019-04-10T03:59:18.603Z,12.50
2019-04-10T04:00:19.759Z,12.30
2019-04-10T04:01:18.737Z,12.30
2019-04-10T04:02:18.519Z,12.10
2019-04-10T04:03:18.623Z,12.00
2019-04-10T04:04:19.414Z,12.30
2019-04-10T04:05:18.443Z,12.40
2019-04-10T04:06:19.495Z,12.10
2019-04-10T04:07:18.441Z,12.10
2019-04-10T04:08:19.281Z,12.10
2019-04-10T04:09:19.507Z,12.60
2019-04-10T04:10:18.371Z,12.00
2019-04-10T04:11:18.240Z,12.00
2019-04-10T04:12:18.225Z,12.80
2019-04-10T04:13:19.452Z,12.30
2019-04-10T04:14:18.217Z,12.50
2019-04-10T04:15:18.193Z,12.40
2019-04-10T04:16:19.137Z,12.50
2019-04-10T04:17:18.071Z,12.60
2019-04-10T04:18:19.191Z,13.10
2019-04-10T04:19:18.025Z,13.00
2019-04-10T04:20:18.994Z,12.50
2019-04-10T04:21:17.952Z,13.00
2019-04-10T04:22:18.811Z,12.40
2019-04-10T04:23:17.935Z,12.60
2019-04-10T04:24:20.685Z,12.30
2019-04-10T04:25:17.857Z,12.60
2019-04-10T04:26:18.859Z,12.90
2019-04-10T04:27:18.893Z,12.70
2019-04-10T04:28:18.833Z,12.50
2019-04-10T04:29:18.461Z,12.80
2019-04-10T04:30:17.692Z,12.20
2019-04-10T04:31:18.095Z,13.20
2019-04-10T04:32:17.722Z,12.80
2019-04-10T04:33:17.728Z,12.80
2019-04-10T04:34:18.646Z,12.90
2019-04-10T04:35:17.672Z,13.20
2019-04-10T04:36:18.264Z,12.50
2019-04-10T04:37:18.474Z,12.70
2019-04-10T04:38:17.829Z,13.10
2019-04-10T04:39:24.038Z,12.30
2019-04-10T04:40:17.523Z,12.50
2019-04-10T04:41:17.492Z,12.90
2019-04-10T04:42:17.518Z,12.60
2019-04-10T04:43:17.332Z,12.70
2019-04-10T04:44:18.074Z,12.40
2019-04-10T04:45:17.395Z,12.50
2019-04-10T04:46:18.193Z,12.80
2019-04-10T04:47:18.212Z,13.30
2019-04-10T04:48:17.203Z,11.80
2019-04-10T04:49:17.976Z,12.50
2019-04-10T04:50:17.835Z,12.10
2019-04-10T04:51:17.578Z,12.50
2019-04-10T04:52:18.236Z,12.60
2019-04-10T04:53:17.131Z,12.10
2019-04-10T04:54:17.144Z,12.60
2019-04-10T04:55:17.637Z,12.90
2019-04-10T04:56:17.865Z,13.00
2019-04-10T04:57:17.108Z,12.90
2019-04-10T04:58:17.815Z,12.70
2019-04-10T04:59:16.957Z,12.10
2019-04-10T05:00:17.374Z,13.30
2019-04-10T05:01:16.980Z,12.80
2019-04-10T05:02:17.758Z,12.30
2019-04-10T05:03:16.771Z,12.20
2019-04-10T05:04:17.270Z,12.40
2019-04-10T05:05:16.679Z,12.40
2019-04-10T05:06:16.652Z,12.70
2019-04-10T05:07:16.888Z,12.30
2019-04-10T05:08:17.471Z,13.00
2019-04-10T05:09:28.337Z,12.30
2019-04-10T05:10:17.405Z,12.80
2019-04-10T05:11:16.621Z,13.10
2019-04-10T05:12:16.695Z,13.30
2019-04-10T05:13:16.449Z,12.00
2019-04-10T05:14:17.393Z,13.00
2019-04-10T05:15:16.484Z,12.70
2019-04-10T05:16:16.645Z,12.20
2019-04-10T05:17:17.978Z,13.00
2019-04-10T05:18:16.294Z,12.60
2019-04-10T05:19:17.372Z,12.80
2019-04-10T05:20:16.986Z,12.90
2019-04-10T05:21:17.067Z,12.20
2019-04-10T05:22:16.696Z,12.80
2019-04-10T05:23:16.193Z,12.90
2019-04-10T05:24:16.111Z,12.50
2019-04-10T05:25:16.824Z,12.50
2019-04-10T05:26:16.536Z,12.80
2019-04-10T05:27:16.139Z,12.70
2019-04-10T05:28:15.996Z,12.40
2019-04-10T05:29:15.961Z,13.30
2019-04-10T05:30:16.398Z,12.80
2019-04-10T05:31:15.916Z,12.50
2019-04-10T05:32:15.978Z,12.30
2019-04-10T05:33:16.245Z,12.40
2019-04-10T05:34:15.853Z,12.60
2019-04-10T05:35:15.789Z,12.60
2019-04-10T05:36:17.341Z,12.00
2019-04-10T05:37:15.760Z,12.30
2019-04-10T05:38:16.563Z,12.60
2019-04-10T05:39:16.814Z,12.50
2019-04-10T05:40:15.631Z,12.70
2019-04-10T05:41:15.601Z,12.30
2019-04-10T05:42:16.798Z,12.00
2019-04-10T05:43:15.650Z,12.40
2019-04-10T05:44:16.582Z,12.80
2019-04-10T05:45:15.480Z,12.30
2019-04-10T05:46:16.457Z,12.40
2019-04-10T05:47:15.516Z,13.00
2019-04-10T05:48:15.406Z,11.90
2019-04-10T05:49:15.437Z,12.30
2019-04-10T05:50:15.346Z,12.50
2019-04-10T05:51:15.313Z,12.00
2019-04-10T05:52:15.293Z,12.40
2019-04-10T05:53:16.256Z,12.20
2019-04-10T05:54:15.221Z,12.60
2019-04-10T05:55:16.168Z,12.20
2019-04-10T05:56:16.082Z,12.10
2019-04-10T05:57:15.873Z,12.20
2019-04-10T05:58:15.474Z,12.10
2019-04-10T05:59:16.293Z,11.60
2019-04-10T06:00:15.098Z,11.80
2019-04-10T06:01:15.692Z,12.40
2019-04-10T06:02:15.796Z,11.80
2019-04-10T06:03:14.951Z,12.00
2019-04-10T06:04:15.012Z,11.70
2019-04-10T06:05:16.123Z,11.70
2019-04-10T06:06:14.923Z,12.00
2019-04-10T06:07:14.955Z,11.70
2019-04-10T06:08:14.802Z,11.00
2019-04-10T06:09:14.770Z,11.40
2019-04-10T06:10:15.445Z,12.10
2019-04-10T06:11:15.177Z,11.70
2019-04-10T06:12:14.890Z,11.60
2019-04-10T06:13:15.087Z,11.20
2019-04-10T06:14:15.704Z,11.30
2019-04-10T06:15:14.825Z,11.10
2019-04-10T06:16:15.312Z,11.90
2019-04-10T06:17:14.572Z,11.30
2019-04-10T06:18:15.299Z,11.40
2019-04-10T06:19:15.709Z,12.40
2019-04-10T06:20:15.539Z,11.30
2019-04-10T06:21:14.789Z,11.60
2019-04-10T06:22:14.648Z,11.70
2019-04-10T06:23:14.979Z,11.70
2019-04-10T06:24:14.342Z,11.90
2019-04-10T06:25:16.156Z,11.40
2019-04-10T06:26:16.451Z,11.10
2019-04-10T06:27:14.331Z,11.10
2019-04-10T06:28:14.926Z,11.20
2019-04-10T06:29:14.920Z,10.40
2019-04-10T06:30:15.339Z,10.10
2019-04-10T06:31:14.644Z,11.10
2019-04-10T06:32:14.166Z,11.00
2019-04-10T06:33:14.061Z,11.20
2019-04-10T06:34:16.121Z,10.90
2019-04-10T06:35:14.001Z,11.00
2019-04-10T06:36:13.982Z,10.70
2019-04-10T06:37:14.002Z,10.50
2019-04-10T06:38:14.777Z,10.30
2019-04-10T06:39:13.913Z,10.90
2019-04-10T06:40:19.234Z,13.50
2019-04-10T06:41:16.221Z,12.70
2019-04-10T06:42:14.216Z,14.80
2019-04-10T06:43:14.887Z,16.40
2019-04-10T06:44:14.021Z,12.80
2019-04-10T06:45:13.732Z,11.40
2019-04-10T06:46:14.532Z,11.40
2019-04-10T06:47:13.863Z,11.70
2019-04-10T06:48:13.650Z,11.40
2019-04-10T06:49:14.471Z,11.30
2019-04-10T06:50:14.792Z,10.60
2019-04-10T06:51:13.535Z,11.50
2019-04-10T06:52:14.432Z,10.60
2019-04-10T06:53:15.864Z,12.40
2019-04-10T06:54:14.379Z,18.00
2019-04-10T06:55:13.414Z,13.50
2019-04-10T06:56:13.497Z,24.30
2019-04-10T06:57:13.386Z,11.00
2019-04-10T06:58:13.693Z,10.30
2019-04-10T06:59:14.159Z,10.50
2019-04-10T07:00:15.202Z,10.70
2019-04-10T07:01:13.590Z,10.70
2019-04-10T07:02:20.549Z,10.70
2019-04-10T07:03:13.199Z,10.80
2019-04-10T07:04:13.504Z,10.50
2019-04-10T07:05:13.881Z,10.70
2019-04-10T07:06:18.690Z,10.40
2019-04-10T07:07:15.774Z,10.30
2019-04-10T07:08:18.937Z,10.70
2019-04-10T07:09:13.775Z,10.40
2019-04-10T07:10:23.518Z,10.40
2019-04-10T07:11:13.612Z,10.40
2019-04-10T07:12:13.053Z,10.70
2019-04-10T07:13:13.455Z,10.60
2019-04-10T07:14:14.277Z,10.60
2019-04-10T07:15:12.885Z,10.10
2019-04-10T07:16:12.914Z,10.50
2019-04-10T07:17:14.382Z,10.50
2019-04-10T07:18:16.767Z,9.90
2019-04-10T07:19:13.177Z,10.90
2019-04-10T07:20:15.350Z,9.90
2019-04-10T07:21:12.667Z,10.40
2019-04-10T07:22:14.399Z,10.40
2019-04-10T07:23:14.503Z,10.20
2019-04-10T07:24:15.003Z,10.40
2019-04-10T07:25:14.232Z,10.80
2019-04-10T07:26:17.722Z,9.80
2019-04-10T07:27:12.477Z,10.50
2019-04-10T07:28:13.639Z,10.30
2019-04-10T07:29:16.394Z,10.50
2019-04-10T07:30:12.472Z,10.30
2019-04-10T07:31:13.020Z,10.10
2019-04-10T07:32:13.365Z,10.30
2019-04-10T07:33:14.830Z,10.50
2019-04-10T07:34:12.317Z,10.10
2019-04-10T07:35:15.171Z,10.10
2019-04-10T07:36:12.887Z,10.70
2019-04-10T07:37:17.267Z,10.50
2019-04-10T07:38:12.222Z,10.20
2019-04-10T07:39:13.047Z,10.70
2019-04-10T07:40:12.308Z,10.60
2019-04-10T07:41:19.734Z,10.40
2019-04-10T07:42:12.036Z,10.20
2019-04-10T07:43:13.233Z,11.50
2019-04-10T07:44:12.176Z,12.30
2019-04-10T07:45:12.061Z,12.20
2019-04-10T07:46:13.095Z,12.70
2019-04-10T07:47:13.227Z,12.30
2019-04-10T07:48:12.894Z,12.20
2019-04-10T07:49:11.841Z,11.30
2019-04-10T07:50:12.189Z,12.20
2019-04-10T07:51:11.787Z,11.80
2019-04-10T07:52:12.571Z,11.10
2019-04-10T07:53:12.563Z,10.90
2019-04-10T07:54:12.040Z,11.20
2019-04-10T07:55:12.780Z,11.10
2019-04-10T07:56:16.146Z,11.60
2019-04-10T07:57:11.831Z,11.70
2019-04-10T07:58:11.731Z,11.40
2019-04-10T07:59:11.703Z,10.90
2019-04-10T08:00:11.522Z,10.90
2019-04-10T08:01:12.022Z,11.00
2019-04-10T08:02:12.437Z,10.70
2019-04-10T08:03:12.508Z,10.70
2019-04-10T08:04:12.461Z,10.50
2019-04-10T08:05:12.254Z,10.40
2019-04-10T08:06:11.467Z,10.90
2019-04-10T08:07:15.409Z,10.90
2019-04-10T08:08:11.289Z,10.30
2019-04-10T08:09:12.436Z,10.60
2019-04-10T08:10:12.085Z,10.70
2019-04-10T08:11:11.310Z,10.80
2019-04-10T08:12:11.318Z,11.10
2019-04-10T08:13:12.131Z,10.60
2019-04-10T08:14:11.113Z,10.80
2019-04-10T08:15:11.269Z,11.00
2019-04-10T08:16:11.056Z,10.70
2019-04-10T08:17:12.153Z,10.60
2019-04-10T08:18:10.993Z,10.80
2019-04-10T08:19:11.120Z,10.50
2019-04-10T08:20:10.945Z,10.30
2019-04-10T08:21:11.284Z,10.50
2019-04-10T08:22:11.077Z,11.00
2019-04-10T08:23:10.851Z,11.30
2019-04-10T08:24:11.427Z,11.60
2019-04-10T08:25:10.880Z,11.80
2019-04-10T08:26:10.773Z,11.70
2019-04-10T08:27:11.697Z,11.10
2019-04-10T08:28:11.446Z,10.90
2019-04-10T08:29:10.691Z,11.10
2019-04-10T08:30:11.181Z,10.90
2019-04-10T08:31:10.777Z,11.00
2019-04-10T08:32:11.791Z,11.50
2019-04-10T08:33:10.580Z,11.00
2019-04-10T08:34:11.022Z,11.20
2019-04-10T08:35:11.238Z,10.70
2019-04-10T08:36:10.974Z,11.00
2019-04-10T08:37:10.604Z,11.60
2019-04-10T08:38:10.421Z,10.90
2019-04-10T08:39:10.973Z,11.10
2019-04-10T08:40:11.431Z,11.20
2019-04-10T08:41:10.770Z,10.50
2019-04-10T08:42:10.685Z,10.90
2019-04-10T08:43:11.683Z,10.20
2019-04-10T08:44:10.754Z,10.10
2019-04-10T08:45:11.384Z,10.70
2019-04-10T08:46:10.835Z,11.20
2019-04-10T08:47:10.996Z,11.40
2019-04-10T08:48:10.142Z,10.70
2019-04-10T08:49:10.133Z,11.20
2019-04-10T08:50:10.105Z,10.90
2019-04-10T08:51:10.748Z,11.10
2019-04-10T08:52:10.390Z,11.10
2019-04-10T08:53:10.131Z,11.10
2019-04-10T08:54:10.068Z,10.70
2019-04-10T08:55:10.178Z,11.70
2019-04-10T08:56:10.759Z,12.30
2019-04-10T08:57:11.201Z,11.80
2019-04-10T08:58:10.394Z,11.00
2019-04-10T08:59:09.842Z,11.40
2019-04-10T09:00:10.178Z,10.90
2019-04-10T09:01:09.781Z,10.80
2019-04-10T09:02:09.792Z,10.50
2019-04-10T09:03:10.814Z,11.10
2019-04-10T09:04:09.803Z,12.00
2019-04-10T09:05:09.687Z,11.30
2019-04-10T09:06:09.712Z,11.70
2019-04-10T09:07:09.620Z,11.70
2019-04-10T09:08:10.699Z,11.90
2019-04-10T09:09:09.792Z,11.80
2019-04-10T09:10:10.264Z,12.30
2019-04-10T09:11:09.519Z,12.00
2019-04-10T09:12:09.479Z,12.20
2019-04-10T09:13:10.434Z,12.10
2019-04-10T09:14:10.643Z,11.70
2019-04-10T09:15:09.813Z,12.30
2019-04-10T09:16:10.000Z,11.90
2019-04-10T09:17:09.346Z,12.10
2019-04-10T09:18:11.232Z,11.50
2019-04-10T09:19:09.743Z,11.80
2019-04-10T09:20:09.265Z,11.10
2019-04-10T09:21:09.324Z,11.90
2019-04-10T09:22:10.048Z,12.00
2019-04-10T09:23:24.994Z,12.50
2019-04-10T09:24:10.183Z,12.40
2019-04-10T09:25:09.279Z,12.10
2019-04-10T09:26:09.100Z,12.10
2019-04-10T09:27:09.167Z,12.20
2019-04-10T09:28:09.065Z,12.20
2019-04-10T09:29:09.032Z,12.60
2019-04-10T09:30:09.003Z,12.50
2019-04-10T09:31:09.326Z,12.50
2019-04-10T09:32:08.946Z,12.90
2019-04-10T09:33:18.983Z,12.20
2019-04-10T09:34:09.662Z,12.60
2019-04-10T09:35:08.954Z,12.10
2019-04-10T09:36:09.085Z,12.40
2019-04-10T09:37:08.816Z,12.40
2019-04-10T09:38:08.941Z,12.20
2019-04-10T09:39:09.546Z,11.50
2019-04-10T09:40:08.886Z,12.40
2019-04-10T09:41:09.826Z,12.20
2019-04-10T09:42:08.775Z,11.80
2019-04-10T09:43:09.313Z,12.40
2019-04-10T09:44:08.771Z,13.00
2019-04-10T09:45:09.313Z,12.50
2019-04-10T09:46:09.841Z,13.00
2019-04-10T09:47:09.627Z,12.90
2019-04-10T09:48:08.569Z,12.00
2019-04-10T09:49:08.871Z,12.10
2019-04-10T09:50:09.674Z,12.20
2019-04-10T09:51:09.660Z,12.80
2019-04-10T09:52:08.422Z,12.30
2019-04-10T09:53:08.543Z,13.10
2019-04-10T09:54:08.371Z,12.70
2019-04-10T09:55:08.424Z,13.00
2019-04-10T09:56:09.455Z,13.30
2019-04-10T09:57:09.101Z,13.70
2019-04-10T09:58:08.456Z,13.40
2019-04-10T09:59:08.251Z,13.80
2019-04-10T10:00:10.352Z,13.20
2019-04-10T10:01:08.363Z,12.50
2019-04-10T10:02:09.212Z,13.10
2019-04-10T10:03:08.142Z,13.30
2019-04-10T10:04:08.964Z,12.40
2019-04-10T10:05:08.506Z,12.40
2019-04-10T10:06:09.038Z,12.50
2019-04-10T10:07:08.273Z,12.30
2019-04-10T10:08:09.081Z,12.70
2019-04-10T10:09:08.372Z,12.50
2019-04-10T10:10:08.730Z,12.20
2019-04-10T10:11:07.964Z,12.80
2019-04-10T10:12:08.044Z,12.50
2019-04-10T10:13:07.913Z,12.10
2019-04-10T10:14:07.887Z,12.60
2019-04-10T10:15:07.966Z,12.70
2019-04-10T10:16:08.522Z,12.80
2019-04-10T10:17:08.601Z,12.60
2019-04-10T10:18:08.805Z,12.50
2019-04-10T10:19:07.989Z,12.40
2019-04-10T10:20:07.949Z,13.00
2019-04-10T10:21:08.288Z,12.50
2019-04-10T10:22:07.717Z,12.60
2019-04-10T10:23:07.707Z,12.40
2019-04-10T10:24:08.596Z,12.90
2019-04-10T10:25:07.628Z,13.00
2019-04-10T10:26:07.974Z,12.70
2019-04-10T10:27:07.630Z,12.80
2019-04-10T10:28:07.565Z,12.30
2019-04-10T10:29:07.543Z,12.60
2019-04-10T10:30:07.511Z,12.40
2019-04-10T10:31:08.180Z,12.30
2019-04-10T10:32:07.452Z,12.40
2019-04-10T10:33:07.770Z,12.50
2019-04-10T10:34:07.410Z,12.40
2019-04-10T10:35:07.483Z,12.60
2019-04-10T10:36:07.506Z,13.00
2019-04-10T10:37:08.339Z,12.50
2019-04-10T10:38:07.875Z,12.90
2019-04-10T10:39:12.695Z,13.10
2019-04-10T10:40:08.420Z,12.20
2019-04-10T10:41:07.259Z,12.50
2019-04-10T10:42:07.651Z,12.10
2019-04-10T10:43:07.888Z,12.10
2019-04-10T10:44:07.241Z,12.20
2019-04-10T10:45:07.156Z,12.60
2019-04-10T10:46:07.310Z,12.20
2019-04-10T10:47:08.252Z,12.60
2019-04-10T10:48:08.620Z,12.80
2019-04-10T10:49:08.345Z,12.80
2019-04-10T10:50:07.052Z,11.90
2019-04-10T10:51:07.082Z,12.40
2019-04-10T10:52:07.002Z,12.80
2019-04-10T10:53:08.058Z,13.50
2019-04-10T10:54:07.015Z,14.90
2019-04-10T10:55:07.661Z,14.50
2019-04-10T10:56:07.025Z,16.50
2019-04-10T10:57:07.091Z,19.80
2019-04-10T10:58:07.873Z,14.50
2019-04-10T10:59:06.851Z,13.20
2019-04-10T11:00:06.844Z,12.30
2019-04-10T11:01:07.413Z,12.50
2019-04-10T11:02:06.853Z,12.20
2019-04-10T11:03:07.746Z,12.60
2019-04-10T11:04:06.850Z,12.80
2019-04-10T11:05:07.179Z,13.00
2019-04-10T11:06:06.784Z,14.00
2019-04-10T11:07:06.953Z,13.40
2019-04-10T11:08:06.937Z,13.20
2019-04-10T11:09:06.702Z,12.80
2019-04-10T11:10:06.995Z,13.20
2019-04-10T11:11:06.624Z,13.00
2019-04-10T11:12:06.807Z,12.40
2019-04-10T11:13:06.691Z,12.50
2019-04-10T11:14:07.374Z,12.80
2019-04-10T11:15:07.700Z,12.00
2019-04-10T11:16:07.559Z,12.90
2019-04-10T11:17:06.551Z,12.70
2019-04-10T11:18:06.485Z,12.30
2019-04-10T11:19:06.816Z,12.90
2019-04-10T11:20:07.964Z,12.00
2019-04-10T11:21:09.716Z,12.30
2019-04-10T11:22:07.417Z,12.10
2019-04-10T11:23:06.370Z,12.50
2019-04-10T11:24:06.977Z,12.20
2019-04-10T11:25:06.323Z,12.70
2019-04-10T11:26:06.261Z,12.90
2019-04-10T11:27:07.959Z,13.20
2019-04-10T11:28:07.545Z,12.50
2019-04-10T11:29:07.933Z,12.00
2019-04-10T11:30:06.174Z,12.50
2019-04-10T11:31:07.108Z,12.40
2019-04-10T11:32:06.758Z,12.00
2019-04-10T11:33:06.283Z,12.30
2019-04-10T11:34:08.271Z,12.00
2019-04-10T11:35:06.713Z,12.10
2019-04-10T11:36:06.555Z,11.90
2019-04-10T11:37:19.190Z,12.30
2019-04-10T11:38:06.115Z,12.30
2019-04-10T11:39:16.226Z,12.50
2019-04-10T11:40:06.891Z,12.30
2019-04-10T11:41:07.486Z,12.20
2019-04-10T11:42:06.728Z,12.30
2019-04-10T11:43:07.550Z,12.20
2019-04-10T11:44:08.153Z,11.80
2019-04-10T11:45:07.662Z,11.50
2019-04-10T11:46:05.823Z,12.20
2019-04-10T11:47:08.732Z,12.10
2019-04-10T11:48:06.065Z,12.10
2019-04-10T11:49:07.574Z,12.10
2019-04-10T11:50:09.199Z,11.90
2019-04-10T11:51:06.802Z,11.30
2019-04-10T11:52:06.356Z,12.00
2019-04-10T11:53:06.974Z,12.00
2019-04-10T11:54:11.030Z,11.70
2019-04-10T11:55:12.721Z,11.70
2019-04-10T11:56:05.808Z,11.80
2019-04-10T11:57:06.822Z,11.90
2019-04-10T11:58:08.067Z,11.60
2019-04-10T11:59:07.616Z,11.40
2019-04-10T12:00:10.531Z,11.80
2019-04-10T12:01:08.538Z,11.60
2019-04-10T12:02:06.720Z,11.80
2019-04-10T12:03:08.747Z,12.50
2019-04-10T12:04:08.651Z,12.10
2019-04-10T12:05:11.021Z,12.50
2019-04-10T12:06:06.321Z,12.90
2019-04-10T12:07:06.004Z,11.80
2019-04-10T12:08:32.330Z,12.40
2019-04-10T12:09:37.676Z,13.00
2019-04-10T12:11:05.317Z,12.70
2019-04-10T12:12:05.706Z,12.60
2019-04-10T12:13:05.969Z,13.50
2019-04-10T12:14:05.321Z,13.00
2019-04-10T12:15:05.202Z,12.40
2019-04-10T12:16:05.202Z,12.70
2019-04-10T12:17:05.480Z,12.90
2019-04-10T12:18:05.142Z,12.30
2019-04-10T12:19:05.252Z,12.50
2019-04-10T12:20:05.110Z,12.70
2019-04-10T12:21:05.302Z,12.60
2019-04-10T12:22:05.437Z,12.60
2019-04-10T12:23:05.184Z,12.00
2019-04-10T12:24:05.375Z,12.30
2019-04-10T12:25:05.091Z,12.50
2019-04-10T12:26:04.972Z,12.40
2019-04-10T12:27:04.950Z,12.60
2019-04-10T12:28:05.435Z,13.60
2019-04-10T12:29:04.917Z,12.40
2019-04-10T12:30:05.032Z,12.60
2019-04-10T12:31:05.894Z,12.50
2019-04-10T12:32:06.162Z,12.40
2019-04-10T12:33:05.386Z,12.10
2019-04-10T12:34:06.651Z,12.30
2019-04-10T12:35:04.803Z,12.20
2019-04-10T12:36:04.971Z,12.80
2019-04-10T12:37:04.958Z,12.70
2019-04-10T12:38:08.096Z,12.80
2019-04-10T12:39:05.709Z,13.00
2019-04-10T12:40:05.460Z,12.30
2019-04-10T12:41:04.807Z,12.80
2019-04-10T12:42:04.681Z,12.10
2019-04-10T12:43:04.968Z,12.90
2019-04-10T12:44:05.328Z,12.50
2019-04-10T12:45:04.827Z,12.40
2019-04-10T12:46:04.731Z,11.80
2019-04-10T12:47:05.723Z,12.30
2019-04-10T12:48:04.522Z,11.70
2019-04-10T12:49:05.339Z,11.80
2019-04-10T12:50:05.715Z,12.20
2019-04-10T12:51:05.527Z,12.60
2019-04-10T12:52:04.571Z,12.20
2019-04-10T12:53:05.327Z,12.60